HAZ3135 ZGSZ-ZSAM
Flight info
| Callsign | HAZ3135 |
|---|---|
| Flight time | 0h 45m |
| Altitude | 37100 |
| Route | OVGOT1 OVGOT R200 BEBEM A470 TEBON TEBON8X |
| Aircraft | B738/M-SDE2E3FGHIRWXY/LB1 |
Departure
| Time | 2026-05-06 05:51 |
|---|---|
| Airport | Shenzhen Bao'an International Airport (ZGSZ) |
Arrival
| Time | 2026-05-06 06:36 |
|---|---|
| Airport | Xiamen Gaoqi International Airport (ZSAM) |
| Time | Latitude | Longitude | Altitude | Speed | Heading |
|---|---|---|---|---|---|
| 2026-05-06 05:37 | 22.63212 | 113.80172 | 22 ft | 0 kts | 122° |
| 2026-05-06 05:44 | 22.63218 | 113.80162 | 22 ft | 2 kts | 122° |
| 2026-05-06 05:45 | 22.63225 | 113.80149 | 22 ft | 2 kts | 122° |
| 2026-05-06 05:45 | 22.63234 | 113.80136 | 22 ft | 2 kts | 146° |
| 2026-05-06 05:45 | 22.63248 | 113.80130 | 22 ft | 2 kts | 175° |
| 2026-05-06 05:45 | 22.63264 | 113.80132 | 22 ft | 2 kts | 207° |
| 2026-05-06 05:46 | 22.63275 | 113.80143 | 22 ft | 1 kts | 237° |
| 2026-05-06 05:46 | 22.63278 | 113.80149 | 22 ft | 1 kts | 247° |
| 2026-05-06 05:46 | 22.63279 | 113.80152 | 22 ft | 0 kts | 244° |
| 2026-05-06 05:47 | 22.63279 | 113.80151 | 22 ft | 0 kts | 244° |
| 2026-05-06 05:48 | 22.63265 | 113.80120 | 22 ft | 10 kts | 244° |
| 2026-05-06 05:48 | 22.63218 | 113.80021 | 22 ft | 16 kts | 243° |
| 2026-05-06 05:48 | 22.63141 | 113.79967 | 22 ft | 13 kts | 159° |
| 2026-05-06 05:48 | 22.63044 | 113.80021 | 22 ft | 19 kts | 153° |
| 2026-05-06 05:49 | 22.62896 | 113.80101 | 22 ft | 28 kts | 153° |
| 2026-05-06 05:49 | 22.62729 | 113.80191 | 22 ft | 17 kts | 154° |
| 2026-05-06 05:49 | 22.62638 | 113.80187 | 22 ft | 13 kts | 236° |
| 2026-05-06 05:49 | 22.62593 | 113.80098 | 22 ft | 12 kts | 251° |
| 2026-05-06 05:50 | 22.62629 | 113.80030 | 22 ft | 11 kts | 333° |
| 2026-05-06 05:50 | 22.62749 | 113.79964 | 22 ft | 43 kts | 333° |
| 2026-05-06 05:50 | 22.63223 | 113.79703 | 22 ft | 107 kts | 333° |
| 2026-05-06 05:50 | 22.64059 | 113.79246 | 22 ft | 158 kts | 333° |
| 2026-05-06 05:51 | 22.65152 | 113.78667 | 213 ft | 181 kts | 334° |
| 2026-05-06 05:51 | 22.66259 | 113.78051 | 862 ft | 181 kts | 330° |
| 2026-05-06 05:51 | 22.67303 | 113.77232 | 1294 ft | 193 kts | 319° |
| 2026-05-06 05:51 | 22.68330 | 113.76169 | 1670 ft | 213 kts | 315° |
| 2026-05-06 05:52 | 22.69422 | 113.74983 | 2176 ft | 229 kts | 315° |
| 2026-05-06 05:52 | 22.70586 | 113.73736 | 2639 ft | 247 kts | 315° |
| 2026-05-06 05:52 | 22.71831 | 113.72417 | 3413 ft | 251 kts | 315° |
| 2026-05-06 05:52 | 22.73090 | 113.71123 | 4229 ft | 253 kts | 319° |
| 2026-05-06 05:53 | 22.74549 | 113.70081 | 4983 ft | 257 kts | 338° |
| 2026-05-06 05:53 | 22.76333 | 113.69798 | 5733 ft | 262 kts | 6° |
| 2026-05-06 05:53 | 22.78074 | 113.70324 | 6472 ft | 266 kts | 24° |
| 2026-05-06 05:53 | 22.79668 | 113.71380 | 7207 ft | 271 kts | 41° |
| 2026-05-06 05:54 | 22.80809 | 113.73001 | 7965 ft | 275 kts | 63° |
| 2026-05-06 05:54 | 22.81573 | 113.74894 | 8664 ft | 282 kts | 68° |
| 2026-05-06 05:54 | 22.82298 | 113.76878 | 9451 ft | 285 kts | 67° |
| 2026-05-06 05:54 | 22.83043 | 113.78863 | 10219 ft | 290 kts | 69° |
| 2026-05-06 05:55 | 22.83569 | 113.80968 | 10976 ft | 295 kts | 83° |
| 2026-05-06 05:55 | 22.83431 | 113.83213 | 11591 ft | 306 kts | 105° |
| 2026-05-06 05:55 | 22.82724 | 113.85420 | 12063 ft | 321 kts | 113° |
| 2026-05-06 05:55 | 22.81826 | 113.87714 | 12537 ft | 337 kts | 114° |
| 2026-05-06 05:56 | 22.80775 | 113.90021 | 12949 ft | 353 kts | 123° |
| 2026-05-06 05:56 | 22.79312 | 113.92231 | 13371 ft | 368 kts | 129° |
| 2026-05-06 05:56 | 22.77683 | 113.94457 | 13789 ft | 383 kts | 130° |
| 2026-05-06 05:56 | 22.75988 | 113.96725 | 14162 ft | 399 kts | 130° |
| 2026-05-06 05:57 | 22.74211 | 113.99110 | 14679 ft | 410 kts | 129° |
| 2026-05-06 05:57 | 22.72599 | 114.01674 | 15448 ft | 413 kts | 120° |
| 2026-05-06 05:57 | 22.71559 | 114.04573 | 16146 ft | 417 kts | 102° |
| 2026-05-06 05:57 | 22.71347 | 114.07653 | 16857 ft | 419 kts | 86° |
| 2026-05-06 05:58 | 22.71611 | 114.10817 | 17513 ft | 423 kts | 83° |
| 2026-05-06 05:58 | 22.71969 | 114.13977 | 18140 ft | 428 kts | 82° |
| 2026-05-06 05:58 | 22.72348 | 114.17195 | 18777 ft | 432 kts | 82° |
| 2026-05-06 05:58 | 22.72717 | 114.20406 | 19417 ft | 436 kts | 83° |
| 2026-05-06 05:59 | 22.73079 | 114.23694 | 20026 ft | 440 kts | 83° |
| 2026-05-06 05:59 | 22.73430 | 114.26971 | 20628 ft | 445 kts | 83° |
| 2026-05-06 05:59 | 22.73781 | 114.30303 | 21230 ft | 448 kts | 83° |
| 2026-05-06 05:59 | 22.74133 | 114.33684 | 21811 ft | 452 kts | 83° |
| 2026-05-06 06:00 | 22.74484 | 114.37077 | 22401 ft | 456 kts | 83° |
| 2026-05-06 06:00 | 22.74832 | 114.40466 | 22926 ft | 460 kts | 83° |
| 2026-05-06 06:00 | 22.75190 | 114.43957 | 23506 ft | 464 kts | 83° |
| 2026-05-06 06:00 | 22.75543 | 114.47412 | 23988 ft | 469 kts | 83° |
| 2026-05-06 06:01 | 22.75899 | 114.50905 | 24549 ft | 472 kts | 83° |
| 2026-05-06 06:01 | 22.76262 | 114.54480 | 25056 ft | 477 kts | 83° |
| 2026-05-06 06:01 | 22.76628 | 114.58057 | 25571 ft | 480 kts | 83° |
| 2026-05-06 06:01 | 22.76994 | 114.61640 | 26095 ft | 484 kts | 83° |
| 2026-05-06 06:02 | 22.77366 | 114.65281 | 26578 ft | 488 kts | 83° |
| 2026-05-06 06:02 | 22.77736 | 114.68903 | 27064 ft | 491 kts | 83° |
| 2026-05-06 06:02 | 22.78114 | 114.72605 | 27480 ft | 496 kts | 83° |
| 2026-05-06 06:02 | 22.78492 | 114.76320 | 27938 ft | 500 kts | 83° |
| 2026-05-06 06:03 | 22.78879 | 114.80052 | 28400 ft | 503 kts | 83° |
| 2026-05-06 06:03 | 22.79278 | 114.83813 | 28796 ft | 507 kts | 83° |
| 2026-05-06 06:03 | 22.79685 | 114.87632 | 29301 ft | 508 kts | 83° |
| 2026-05-06 06:03 | 22.80090 | 114.91412 | 29999 ft | 506 kts | 83° |
| 2026-05-06 06:04 | 22.80489 | 114.95151 | 30705 ft | 502 kts | 83° |
| 2026-05-06 06:04 | 22.80886 | 114.98889 | 31380 ft | 499 kts | 83° |
| 2026-05-06 06:04 | 22.81282 | 115.02629 | 31981 ft | 498 kts | 83° |
| 2026-05-06 06:04 | 22.81671 | 115.06306 | 32483 ft | 498 kts | 83° |
| 2026-05-06 06:05 | 22.82066 | 115.10062 | 32991 ft | 498 kts | 83° |
| 2026-05-06 06:05 | 22.82455 | 115.13788 | 33518 ft | 497 kts | 83° |
| 2026-05-06 06:05 | 22.82842 | 115.17503 | 34025 ft | 496 kts | 82° |
| 2026-05-06 06:05 | 22.83225 | 115.21190 | 34548 ft | 495 kts | 82° |
| 2026-05-06 06:06 | 22.83611 | 115.24912 | 35002 ft | 495 kts | 82° |
| 2026-05-06 06:06 | 22.83994 | 115.28615 | 35516 ft | 494 kts | 82° |
| 2026-05-06 06:06 | 22.84370 | 115.32265 | 36052 ft | 491 kts | 81° |
| 2026-05-06 06:06 | 22.84749 | 115.35942 | 36580 ft | 489 kts | 81° |
| 2026-05-06 06:07 | 22.85123 | 115.39593 | 37011 ft | 488 kts | 81° |
| 2026-05-06 06:07 | 22.85497 | 115.43239 | 37061 ft | 492 kts | 81° |
| 2026-05-06 06:07 | 22.86257 | 115.50645 | 37072 ft | 492 kts | 81° |
| 2026-05-06 06:08 | 22.87001 | 115.57967 | 37069 ft | 491 kts | 81° |
| 2026-05-06 06:08 | 22.87746 | 115.65332 | 37061 ft | 492 kts | 81° |
| 2026-05-06 06:09 | 22.88490 | 115.72652 | 37054 ft | 492 kts | 81° |
| 2026-05-06 06:09 | 22.89232 | 115.80036 | 37049 ft | 493 kts | 81° |
| 2026-05-06 06:10 | 22.89971 | 115.87437 | 37050 ft | 495 kts | 81° |
| 2026-05-06 06:10 | 22.90723 | 115.94862 | 37051 ft | 493 kts | 81° |
| 2026-05-06 06:11 | 22.91497 | 116.02251 | 37052 ft | 492 kts | 81° |
| 2026-05-06 06:11 | 22.92272 | 116.09605 | 37056 ft | 492 kts | 81° |
| 2026-05-06 06:12 | 22.93045 | 116.17030 | 37053 ft | 493 kts | 81° |
| 2026-05-06 06:12 | 22.93802 | 116.24400 | 37053 ft | 493 kts | 81° |
| 2026-05-06 06:13 | 22.95025 | 116.31690 | 37048 ft | 487 kts | 67° |
| 2026-05-06 06:13 | 22.96385 | 116.35018 | 37057 ft | 480 kts | 55° |
| 2026-05-06 06:13 | 22.98304 | 116.37961 | 36999 ft | 475 kts | 45° |
| 2026-05-06 06:14 | 23.00566 | 116.40532 | 36730 ft | 472 kts | 38° |
| 2026-05-06 06:14 | 23.03019 | 116.42870 | 36455 ft | 467 kts | 34° |
| 2026-05-06 06:14 | 23.05577 | 116.45075 | 36178 ft | 464 kts | 32° |
| 2026-05-06 06:14 | 23.08164 | 116.47195 | 35901 ft | 464 kts | 31° |
| 2026-05-06 06:15 | 23.10785 | 116.49299 | 35624 ft | 466 kts | 31° |
| 2026-05-06 06:15 | 23.13408 | 116.51402 | 35347 ft | 468 kts | 31° |
| 2026-05-06 06:15 | 23.16038 | 116.53526 | 35071 ft | 468 kts | 32° |
| 2026-05-06 06:15 | 23.18631 | 116.55637 | 34797 ft | 467 kts | 32° |
| 2026-05-06 06:16 | 23.21236 | 116.57771 | 34524 ft | 469 kts | 32° |
| 2026-05-06 06:16 | 23.23845 | 116.59917 | 34250 ft | 470 kts | 32° |
| 2026-05-06 06:16 | 23.26470 | 116.62084 | 33974 ft | 471 kts | 32° |
| 2026-05-06 06:16 | 23.29089 | 116.64252 | 33701 ft | 472 kts | 33° |
| 2026-05-06 06:17 | 23.31731 | 116.66441 | 33426 ft | 473 kts | 33° |
| 2026-05-06 06:17 | 23.34355 | 116.68617 | 33153 ft | 474 kts | 33° |
| 2026-05-06 06:17 | 23.36994 | 116.70809 | 32882 ft | 475 kts | 33° |
| 2026-05-06 06:17 | 23.39635 | 116.73004 | 32621 ft | 476 kts | 33° |
| 2026-05-06 06:18 | 23.42271 | 116.75211 | 32361 ft | 476 kts | 34° |
| 2026-05-06 06:18 | 23.44801 | 116.77512 | 32103 ft | 479 kts | 38° |
| 2026-05-06 06:18 | 23.47250 | 116.80035 | 31835 ft | 481 kts | 41° |
| 2026-05-06 06:18 | 23.49605 | 116.82642 | 31248 ft | 481 kts | 43° |
| 2026-05-06 06:19 | 23.51913 | 116.85291 | 30305 ft | 485 kts | 44° |
| 2026-05-06 06:19 | 23.54215 | 116.87965 | 29333 ft | 488 kts | 45° |
| 2026-05-06 06:19 | 23.56537 | 116.90665 | 28354 ft | 492 kts | 45° |
| 2026-05-06 06:19 | 23.58878 | 116.93381 | 27422 ft | 493 kts | 45° |
| 2026-05-06 06:20 | 23.61243 | 116.96114 | 26733 ft | 489 kts | 45° |
| 2026-05-06 06:20 | 23.63561 | 116.98782 | 26035 ft | 485 kts | 45° |
| 2026-05-06 06:20 | 23.65891 | 117.01457 | 25303 ft | 482 kts | 45° |
| 2026-05-06 06:20 | 23.68173 | 117.04071 | 24575 ft | 479 kts | 45° |
| 2026-05-06 06:21 | 23.70474 | 117.06701 | 23831 ft | 475 kts | 45° |
| 2026-05-06 06:21 | 23.72734 | 117.09280 | 23099 ft | 472 kts | 46° |
| 2026-05-06 06:21 | 23.75009 | 117.11875 | 22357 ft | 469 kts | 46° |
| 2026-05-06 06:21 | 23.77277 | 117.14444 | 21604 ft | 466 kts | 44° |
| 2026-05-06 06:22 | 23.79575 | 117.16873 | 20883 ft | 462 kts | 42° |
| 2026-05-06 06:22 | 23.81954 | 117.19222 | 20142 ft | 458 kts | 40° |
| 2026-05-06 06:22 | 23.84345 | 117.21508 | 19414 ft | 454 kts | 40° |
| 2026-05-06 06:22 | 23.86699 | 117.23740 | 18690 ft | 451 kts | 40° |
| 2026-05-06 06:23 | 23.89076 | 117.25997 | 17956 ft | 448 kts | 40° |
| 2026-05-06 06:23 | 23.91416 | 117.28229 | 17234 ft | 444 kts | 40° |
| 2026-05-06 06:23 | 23.93725 | 117.30447 | 16525 ft | 441 kts | 40° |
| 2026-05-06 06:23 | 23.95999 | 117.32647 | 15809 ft | 438 kts | 40° |
| 2026-05-06 06:24 | 23.98280 | 117.34865 | 15093 ft | 435 kts | 40° |
| 2026-05-06 06:24 | 24.00516 | 117.37048 | 14388 ft | 432 kts | 40° |
| 2026-05-06 06:24 | 24.02761 | 117.39247 | 13657 ft | 429 kts | 40° |
| 2026-05-06 06:24 | 24.04982 | 117.41425 | 12911 ft | 426 kts | 40° |
| 2026-05-06 06:25 | 24.07164 | 117.43567 | 12189 ft | 422 kts | 40° |
| 2026-05-06 06:25 | 24.09334 | 117.45699 | 11478 ft | 418 kts | 40° |
| 2026-05-06 06:25 | 24.13567 | 117.49899 | 10659 ft | 393 kts | 43° |
| 2026-05-06 06:26 | 24.15437 | 117.51955 | 10515 ft | 375 kts | 45° |
| 2026-05-06 06:26 | 24.17197 | 117.54020 | 10360 ft | 359 kts | 46° |
| 2026-05-06 06:26 | 24.18842 | 117.56014 | 10200 ft | 345 kts | 46° |
| 2026-05-06 06:26 | 24.20417 | 117.57941 | 9882 ft | 338 kts | 46° |
| 2026-05-06 06:27 | 24.21972 | 117.59836 | 9402 ft | 336 kts | 46° |
| 2026-05-06 06:27 | 24.23546 | 117.61742 | 8975 ft | 332 kts | 46° |
| 2026-05-06 06:27 | 24.25081 | 117.63591 | 8554 ft | 328 kts | 46° |
| 2026-05-06 06:27 | 24.26621 | 117.65442 | 8162 ft | 324 kts | 47° |
| 2026-05-06 06:28 | 24.28141 | 117.67265 | 7750 ft | 320 kts | 47° |
| 2026-05-06 06:28 | 24.29624 | 117.69044 | 7359 ft | 316 kts | 47° |
| 2026-05-06 06:28 | 24.31103 | 117.70818 | 6989 ft | 317 kts | 47° |
| 2026-05-06 06:28 | 24.32627 | 117.72646 | 6548 ft | 323 kts | 47° |
| 2026-05-06 06:29 | 24.34110 | 117.74426 | 6163 ft | 310 kts | 47° |
| 2026-05-06 06:29 | 24.35530 | 117.76133 | 5878 ft | 292 kts | 47° |
| 2026-05-06 06:29 | 24.36845 | 117.77715 | 5799 ft | 269 kts | 47° |
| 2026-05-06 06:29 | 24.38059 | 117.79177 | 5724 ft | 249 kts | 47° |
| 2026-05-06 06:30 | 24.39166 | 117.80565 | 5645 ft | 232 kts | 52° |
| 2026-05-06 06:30 | 24.39938 | 117.82111 | 5518 ft | 236 kts | 75° |
| 2026-05-06 06:30 | 24.40151 | 117.83890 | 5224 ft | 236 kts | 88° |
| 2026-05-06 06:30 | 24.40185 | 117.85706 | 4948 ft | 235 kts | 88° |
| 2026-05-06 06:31 | 24.40259 | 117.87483 | 4708 ft | 232 kts | 86° |
| 2026-05-06 06:31 | 24.40371 | 117.89215 | 4514 ft | 227 kts | 85° |
| 2026-05-06 06:31 | 24.40500 | 117.90937 | 4372 ft | 224 kts | 85° |
| 2026-05-06 06:31 | 24.40647 | 117.92645 | 4170 ft | 224 kts | 81° |
| 2026-05-06 06:32 | 24.41065 | 117.94250 | 3972 ft | 222 kts | 60° |
| 2026-05-06 06:32 | 24.41982 | 117.95640 | 3651 ft | 223 kts | 48° |
| 2026-05-06 06:32 | 24.42998 | 117.96914 | 3346 ft | 223 kts | 49° |
| 2026-05-06 06:32 | 24.43984 | 117.98216 | 3068 ft | 220 kts | 51° |
| 2026-05-06 06:33 | 24.44912 | 117.99515 | 2738 ft | 217 kts | 53° |
| 2026-05-06 06:33 | 24.45801 | 118.00814 | 2478 ft | 204 kts | 53° |
| 2026-05-06 06:33 | 24.46625 | 118.01973 | 2199 ft | 184 kts | 52° |
| 2026-05-06 06:33 | 24.47393 | 118.03009 | 1948 ft | 163 kts | 53° |
| 2026-05-06 06:34 | 24.48053 | 118.03931 | 1790 ft | 147 kts | 52° |
| 2026-05-06 06:34 | 24.48690 | 118.04805 | 1593 ft | 147 kts | 52° |
| 2026-05-06 06:34 | 24.49318 | 118.05682 | 1383 ft | 144 kts | 53° |
| 2026-05-06 06:34 | 24.49956 | 118.06556 | 1191 ft | 147 kts | 52° |
| 2026-05-06 06:35 | 24.50580 | 118.07440 | 1004 ft | 148 kts | 52° |
| 2026-05-06 06:35 | 24.51214 | 118.08323 | 815 ft | 147 kts | 52° |
| 2026-05-06 06:35 | 24.51855 | 118.09199 | 617 ft | 147 kts | 52° |
| 2026-05-06 06:35 | 24.52494 | 118.10085 | 432 ft | 148 kts | 52° |
| 2026-05-06 06:36 | 24.53135 | 118.10980 | 243 ft | 149 kts | 51° |
| 2026-05-06 06:36 | 24.53789 | 118.11890 | 87 ft | 148 kts | 52° |
| 2026-05-06 06:36 | 24.54335 | 118.12659 | 76 ft | 95 kts | 52° |
| 2026-05-06 06:36 | 24.54603 | 118.13034 | 76 ft | 31 kts | 52° |
| 2026-05-06 06:37 | 24.54700 | 118.13245 | 75 ft | 30 kts | 78° |
| 2026-05-06 06:37 | 24.54711 | 118.13379 | 75 ft | 10 kts | 127° |
| 2026-05-06 06:37 | 24.54656 | 118.13429 | 75 ft | 9 kts | 141° |
| 2026-05-06 06:37 | 24.54630 | 118.13484 | 75 ft | 8 kts | 72° |
| 2026-05-06 06:38 | 24.54665 | 118.13540 | 75 ft | 11 kts | 52° |
| 2026-05-06 06:38 | 24.54744 | 118.13646 | 75 ft | 20 kts | 51° |
| 2026-05-06 06:38 | 24.54815 | 118.13750 | 75 ft | 12 kts | 69° |
| 2026-05-06 06:38 | 24.54793 | 118.13819 | 75 ft | 6 kts | 81° |
| 2026-05-06 06:39 | 24.54808 | 118.13866 | 75 ft | 6 kts | 77° |
| 2026-05-06 06:39 | 24.54816 | 118.13909 | 75 ft | 5 kts | 78° |
| 2026-05-06 06:39 | 24.54817 | 118.13914 | 75 ft | 0 kts | 78° |